createdAt,value
2022-09-14T00:00:45.046Z,1259
2022-09-14T00:01:45.132Z,1259
2022-09-14T00:02:45.409Z,1683
2022-09-14T00:03:45.043Z,1425
2022-09-14T00:04:45.083Z,1385
2022-09-14T00:05:45.050Z,1212
2022-09-14T00:06:45.049Z,1262
2022-09-14T00:07:45.232Z,1255
2022-09-14T00:08:45.040Z,1673
2022-09-14T00:09:45.050Z,1626
2022-09-14T00:10:45.075Z,1597
2022-09-14T00:11:45.087Z,1436
2022-09-14T00:12:45.244Z,1274
2022-09-14T00:13:45.120Z,1341
2022-09-14T00:14:45.093Z,1544
2022-09-14T00:15:45.053Z,1191
2022-09-14T00:16:45.228Z,1517
2022-09-14T00:17:45.228Z,1776
2022-09-14T00:18:45.114Z,1654
2022-09-14T00:19:45.085Z,1678
2022-09-14T00:20:45.123Z,1669
2022-09-14T00:21:45.095Z,1692
2022-09-14T00:22:45.242Z,1820
2022-09-14T00:23:45.123Z,1669
2022-09-14T00:24:45.090Z,1650
2022-09-14T00:25:45.123Z,1174
2022-09-14T00:26:45.116Z,1178
2022-09-14T00:27:45.241Z,1191
2022-09-14T00:28:45.056Z,1416
2022-09-14T00:29:45.092Z,1683
2022-09-14T00:30:45.055Z,1140
2022-09-14T00:31:45.083Z,1845
2022-09-14T00:32:45.249Z,1723
2022-09-14T00:33:45.061Z,1639
2022-09-14T00:34:45.100Z,1277
2022-09-14T00:35:45.061Z,1277
2022-09-14T00:36:45.093Z,1341
2022-09-14T00:37:45.299Z,1281
2022-09-14T00:38:45.067Z,1338
2022-09-14T00:39:45.107Z,1711
2022-09-14T00:40:45.064Z,1706
2022-09-14T00:41:45.072Z,1470
2022-09-14T00:42:45.264Z,1338
2022-09-14T00:43:45.066Z,1321
2022-09-14T00:44:45.065Z,1815
2022-09-14T00:45:45.159Z,1626
2022-09-14T00:46:45.133Z,1735
2022-09-14T00:47:45.244Z,2176
2022-09-14T00:48:45.062Z,1787
2022-09-14T00:49:45.066Z,1787
2022-09-14T00:50:45.103Z,1706
2022-09-14T00:51:45.099Z,1782
2022-09-14T00:52:45.237Z,1706
2022-09-14T00:53:45.095Z,1291
2022-09-14T00:54:45.104Z,1274
2022-09-14T00:55:45.147Z,1743
2022-09-14T00:56:45.099Z,1706
2022-09-14T00:57:45.256Z,1274
2022-09-14T00:58:45.127Z,1367
2022-09-14T00:59:45.109Z,1302
2022-09-14T01:00:45.233Z,1238
2022-09-14T01:01:45.204Z,1574
2022-09-14T01:02:45.314Z,1525
2022-09-14T01:03:45.070Z,1349
2022-09-14T01:04:45.079Z,1356
2022-09-14T01:05:45.109Z,1654
2022-09-14T01:06:45.078Z,1879
2022-09-14T01:07:45.253Z,1805
2022-09-14T01:08:45.110Z,1749
2022-09-14T01:09:45.114Z,1723
2022-09-14T01:10:45.078Z,1825
2022-09-14T01:11:48.303Z,1815
2022-09-14T01:12:45.258Z,1597
2022-09-14T01:13:45.115Z,1683
2022-09-14T01:14:45.076Z,1723
2022-09-14T01:15:45.086Z,1310
2022-09-14T01:16:45.240Z,1728
2022-09-14T01:17:45.268Z,1594
2022-09-14T01:18:45.076Z,1285
2022-09-14T01:19:45.119Z,1302
2022-09-14T01:20:45.081Z,1242
2022-09-14T01:21:45.150Z,1364
2022-09-14T01:22:45.296Z,1266
2022-09-14T01:23:45.120Z,1356
2022-09-14T01:24:45.158Z,1281
2022-09-14T01:25:45.127Z,1245
2022-09-14T01:26:45.127Z,1245
2022-09-14T01:27:45.263Z,1334
2022-09-14T01:28:45.132Z,1845
2022-09-14T01:29:45.494Z,1429
2022-09-14T01:30:45.078Z,1188
2022-09-14T01:31:45.194Z,1776
2022-09-14T01:32:45.261Z,1776
2022-09-14T01:33:45.087Z,1688
2022-09-14T01:34:45.089Z,1643
2022-09-14T01:35:45.092Z,1612
2022-09-14T01:36:45.124Z,1569
2022-09-14T01:37:45.293Z,1643
2022-09-14T01:38:45.092Z,1706
2022-09-14T01:39:45.151Z,1717
2022-09-14T01:40:45.090Z,1717
2022-09-14T01:41:45.123Z,1723
2022-09-14T01:42:45.264Z,1678
2022-09-14T01:43:45.102Z,1688
2022-09-14T01:44:45.092Z,1749
2022-09-14T01:45:45.159Z,1735
2022-09-14T01:46:45.103Z,1321
2022-09-14T01:47:45.283Z,1372
2022-09-14T01:48:45.127Z,1235
2022-09-14T01:49:45.098Z,1654
2022-09-14T01:50:45.096Z,1590
2022-09-14T01:51:45.132Z,1191
2022-09-14T01:52:45.270Z,1224
2022-09-14T01:53:45.167Z,1291
2022-09-14T01:54:45.131Z,1341
2022-09-14T01:55:45.129Z,1341
2022-09-14T01:56:45.152Z,1749
2022-09-14T01:57:45.336Z,1787
2022-09-14T01:58:45.157Z,1825
2022-09-14T01:59:45.168Z,1584
2022-09-14T02:00:45.164Z,1900
2022-09-14T02:01:47.437Z,1776
2022-09-14T02:02:45.354Z,1805
2022-09-14T02:03:45.169Z,1702
2022-09-14T02:04:45.102Z,1916
2022-09-14T02:05:45.137Z,1835
2022-09-14T02:06:45.108Z,1872
2022-09-14T02:07:45.284Z,1850
2022-09-14T02:08:45.142Z,1815
2022-09-14T02:09:45.105Z,1840
2022-09-14T02:10:45.108Z,1879
2022-09-14T02:11:45.141Z,1900
2022-09-14T02:12:45.288Z,1762
2022-09-14T02:13:45.143Z,1277
2022-09-14T02:14:45.104Z,1372
2022-09-14T02:15:45.109Z,1137
2022-09-14T02:16:45.199Z,1825
2022-09-14T02:17:45.297Z,1482
2022-09-14T02:18:45.148Z,1895
2022-09-14T02:19:45.191Z,1702
2022-09-14T02:20:45.113Z,1759
2022-09-14T02:21:45.115Z,1360
2022-09-14T02:22:45.340Z,1330
2022-09-14T02:23:45.107Z,1360
2022-09-14T02:24:45.156Z,1345
2022-09-14T02:25:45.108Z,1762
2022-09-14T02:26:45.118Z,1762
2022-09-14T02:27:45.306Z,1768
2022-09-14T02:28:45.119Z,1749
2022-09-14T02:29:45.152Z,1792
2022-09-14T02:30:45.109Z,1728
2022-09-14T02:31:45.121Z,1850
2022-09-14T02:32:45.293Z,1507
2022-09-14T02:33:45.157Z,1865
2022-09-14T02:34:45.160Z,1872
2022-09-14T02:35:45.117Z,1860
2022-09-14T02:36:45.115Z,1639
2022-09-14T02:37:45.295Z,1453
2022-09-14T02:38:45.113Z,1364
2022-09-14T02:39:45.187Z,1352
2022-09-14T02:40:45.121Z,1805
2022-09-14T02:41:45.119Z,1840
2022-09-14T02:42:45.295Z,1825
2022-09-14T02:43:45.123Z,1815
2022-09-14T02:44:45.189Z,1597
2022-09-14T02:45:45.164Z,1773
2022-09-14T02:46:45.205Z,1683
2022-09-14T02:47:45.301Z,1608
2022-09-14T02:48:45.161Z,1534
2022-09-14T02:49:45.123Z,1860
2022-09-14T02:50:45.165Z,1912
2022-09-14T02:51:45.169Z,1458
2022-09-14T02:52:45.293Z,1408
2022-09-14T02:53:45.139Z,1385
2022-09-14T02:54:45.123Z,1367
2022-09-14T02:55:45.125Z,1743
2022-09-14T02:56:45.154Z,1743
2022-09-14T02:57:45.313Z,1787
2022-09-14T02:58:45.162Z,1702
2022-09-14T02:59:45.167Z,1702
2022-09-14T03:00:45.180Z,1759
2022-09-14T03:01:45.243Z,1792
2022-09-14T03:02:45.303Z,1735
2022-09-14T03:03:45.200Z,1872
2022-09-14T03:04:45.171Z,2092
2022-09-14T03:05:45.205Z,1389
2022-09-14T03:06:45.177Z,1385
2022-09-14T03:07:45.319Z,1436
2022-09-14T03:08:45.194Z,1890
2022-09-14T03:09:45.176Z,1865
2022-09-14T03:10:45.209Z,1879
2022-09-14T03:11:45.190Z,1890
2022-09-14T03:12:45.317Z,1815
2022-09-14T03:13:45.206Z,1890
2022-09-14T03:14:45.175Z,1787
2022-09-14T03:15:45.232Z,1865
2022-09-14T03:16:45.178Z,1890
2022-09-14T03:17:45.318Z,1937
2022-09-14T03:18:45.170Z,1470
2022-09-14T03:19:45.185Z,1400
2022-09-14T03:20:45.185Z,1425
2022-09-14T03:21:45.181Z,2012
2022-09-14T03:22:45.318Z,1928
2022-09-14T03:23:45.186Z,1928
2022-09-14T03:24:45.190Z,1967
2022-09-14T03:25:45.194Z,1973
2022-09-14T03:26:45.180Z,1944
2022-09-14T03:27:45.319Z,1973
2022-09-14T03:28:45.189Z,2029
2022-09-14T03:29:45.194Z,1933
2022-09-14T03:30:45.224Z,1470
2022-09-14T03:31:45.212Z,1404
2022-09-14T03:32:45.406Z,1436
2022-09-14T03:33:45.183Z,1706
2022-09-14T03:35:40.868Z,400
2022-09-14T03:36:40.883Z,566
2022-09-14T03:37:40.871Z,551
2022-09-14T03:39:41.048Z,523
2022-09-14T03:40:40.873Z,565
2022-09-14T03:41:40.878Z,551
2022-09-14T03:42:40.883Z,617
2022-09-14T03:44:41.041Z,476
2022-09-14T03:45:40.876Z,599
2022-09-14T03:46:40.886Z,599
2022-09-14T03:47:40.847Z,569
2022-09-14T03:49:41.046Z,569
2022-09-14T03:50:40.876Z,640
2022-09-14T03:51:40.850Z,478
2022-09-14T03:52:40.878Z,475
2022-09-14T03:54:41.067Z,505
2022-09-14T03:55:40.882Z,460
2022-09-14T03:56:40.886Z,588
2022-09-14T03:57:40.892Z,581
2022-09-14T03:59:43.687Z,607
2022-09-14T04:00:40.886Z,615
2022-09-14T04:01:40.939Z,577
2022-09-14T04:02:40.972Z,618
2022-09-14T04:04:41.086Z,463
2022-09-14T04:05:40.901Z,436
2022-09-14T04:06:40.913Z,402
2022-09-14T04:07:40.888Z,586
2022-09-14T04:09:41.085Z,565
2022-09-14T04:10:40.898Z,567
2022-09-14T04:11:40.893Z,574
2022-09-14T04:12:40.888Z,566
2022-09-14T04:14:41.073Z,580
2022-09-14T04:15:40.892Z,401
2022-09-14T04:16:40.861Z,443
2022-09-14T04:17:40.861Z,441
2022-09-14T04:19:41.071Z,577
2022-09-14T04:20:40.910Z,574
2022-09-14T04:21:40.876Z,597
2022-09-14T04:22:40.886Z,578
2022-09-14T04:24:41.076Z,444
2022-09-14T04:25:40.900Z,477
2022-09-14T04:26:40.878Z,646
2022-09-14T04:27:40.897Z,617
2022-09-14T04:29:41.072Z,645
2022-09-14T04:30:40.898Z,553
2022-09-14T04:31:40.917Z,551
2022-09-14T04:32:40.892Z,697
2022-09-14T04:34:41.067Z,530
2022-09-14T04:35:40.888Z,757
2022-09-14T04:36:40.872Z,780
2022-09-14T04:37:40.888Z,759
2022-09-14T04:39:41.102Z,748
2022-09-14T04:40:40.876Z,560
2022-09-14T04:41:40.911Z,574
2022-09-14T04:42:40.914Z,572
2022-09-14T04:44:41.108Z,759
2022-09-14T04:45:40.916Z,990
2022-09-14T04:46:45.310Z,802
2022-09-14T04:47:40.914Z,821
2022-09-14T04:49:41.088Z,682
2022-09-14T04:50:40.921Z,539
2022-09-14T04:51:40.926Z,548
2022-09-14T04:52:40.936Z,749
2022-09-14T04:54:41.104Z,763
2022-09-14T04:55:40.929Z,768
2022-09-14T04:56:40.910Z,578
2022-09-14T04:57:40.933Z,597
2022-09-14T04:59:41.089Z,768
2022-09-14T05:00:40.905Z,804
2022-09-14T05:01:40.969Z,776
2022-09-14T05:02:40.975Z,757
2022-09-14T05:04:41.124Z,780
2022-09-14T05:05:44.248Z,589
2022-09-14T05:06:40.929Z,581
2022-09-14T05:07:40.939Z,778
2022-09-14T05:09:41.095Z,795
2022-09-14T05:10:40.921Z,783
2022-09-14T05:11:40.896Z,783
2022-09-14T05:12:40.916Z,838
2022-09-14T05:14:41.119Z,599
2022-09-14T05:15:40.937Z,584
2022-09-14T05:16:40.913Z,774
2022-09-14T05:17:40.900Z,548
2022-09-14T05:19:41.109Z,566
2022-09-14T05:20:40.933Z,478
2022-09-14T05:21:40.932Z,643
2022-09-14T05:22:40.943Z,772
2022-09-14T05:24:41.120Z,765
2022-09-14T05:25:40.916Z,765
2022-09-14T05:26:40.926Z,783
2022-09-14T05:27:40.928Z,768
2022-09-14T05:29:41.106Z,580
2022-09-14T05:30:40.939Z,545
2022-09-14T05:31:40.998Z,708
2022-09-14T05:32:40.938Z,545
2022-09-14T05:34:41.138Z,524
2022-09-14T05:35:40.931Z,575
2022-09-14T05:36:40.935Z,553
2022-09-14T05:37:40.941Z,754
2022-09-14T05:39:41.132Z,742
2022-09-14T05:40:40.956Z,671
2022-09-14T05:41:40.929Z,633
2022-09-14T05:42:40.920Z,640
2022-09-14T05:44:41.136Z,477
2022-09-14T05:45:40.905Z,646
2022-09-14T05:46:40.984Z,668
2022-09-14T05:47:40.911Z,645
2022-09-14T05:49:41.130Z,646
2022-09-14T05:50:40.933Z,565
2022-09-14T05:51:40.910Z,444
2022-09-14T05:52:40.914Z,567
2022-09-14T05:54:41.113Z,569
2022-09-14T05:55:40.933Z,549
2022-09-14T05:56:40.918Z,742
2022-09-14T05:57:40.936Z,744
2022-09-14T05:59:41.115Z,815
2022-09-14T06:00:40.941Z,742
2022-09-14T06:01:40.936Z,712
2022-09-14T06:02:40.951Z,706
2022-09-14T06:04:41.112Z,740
2022-09-14T06:05:40.998Z,774
2022-09-14T06:06:40.956Z,800
2022-09-14T06:07:40.974Z,605
2022-09-14T06:09:41.128Z,591
2022-09-14T06:10:40.922Z,542
2022-09-14T06:11:40.953Z,540
2022-09-14T06:12:40.923Z,520
2022-09-14T06:14:41.130Z,536
2022-09-14T06:15:40.916Z,643
2022-09-14T06:16:40.928Z,626
2022-09-14T06:17:40.922Z,652
2022-09-14T06:19:41.163Z,806
2022-09-14T06:20:40.950Z,770
2022-09-14T06:21:40.952Z,649
2022-09-14T06:22:40.973Z,626
2022-09-14T06:24:41.118Z,577
2022-09-14T06:25:40.929Z,534
2022-09-14T06:26:40.934Z,555
2022-09-14T06:27:40.931Z,555
2022-09-14T06:29:41.138Z,715
2022-09-14T06:30:40.982Z,706
2022-09-14T06:31:40.939Z,692
2022-09-14T06:32:40.966Z,688
2022-09-14T06:34:41.133Z,643
2022-09-14T06:35:40.957Z,657
2022-09-14T06:36:40.938Z,652
2022-09-14T06:37:40.960Z,496
2022-09-14T06:39:41.130Z,501
2022-09-14T06:40:40.961Z,634
2022-09-14T06:41:40.939Z,659
2022-09-14T06:42:40.963Z,637
2022-09-14T06:44:41.128Z,652
2022-09-14T06:45:40.968Z,591
2022-09-14T06:46:43.625Z,592
2022-09-14T06:47:40.945Z,599
2022-09-14T06:49:41.151Z,549
2022-09-14T06:50:40.967Z,611
2022-09-14T06:51:40.977Z,641
2022-09-14T06:52:40.946Z,614
2022-09-14T06:54:41.162Z,623
2022-09-14T06:55:40.938Z,452
2022-09-14T06:56:40.954Z,463
2022-09-14T06:57:42.832Z,620
2022-09-14T06:59:41.142Z,491
2022-09-14T07:00:40.995Z,462
2022-09-14T07:01:40.941Z,485
2022-09-14T07:02:41.013Z,627
2022-09-14T07:04:41.142Z,640
2022-09-14T07:05:40.964Z,599
2022-09-14T07:06:40.953Z,626
2022-09-14T07:07:40.975Z,930
2022-09-14T07:09:41.144Z,933
2022-09-14T07:10:40.981Z,942
2022-09-14T07:11:40.985Z,702
2022-09-14T07:12:40.947Z,697
2022-09-14T07:14:41.169Z,830
2022-09-14T07:15:40.951Z,787
2022-09-14T07:16:40.988Z,602
2022-09-14T07:17:40.963Z,838
2022-09-14T07:19:41.180Z,770
2022-09-14T07:20:40.971Z,694
2022-09-14T07:21:40.950Z,503
2022-09-14T07:22:40.985Z,452
2022-09-14T07:24:41.158Z,686
2022-09-14T07:25:40.986Z,417
2022-09-14T07:26:40.988Z,485
2022-09-14T07:27:41.006Z,589
2022-09-14T07:29:41.163Z,645
2022-09-14T07:30:41.052Z,675
2022-09-14T07:31:40.994Z,704
2022-09-14T07:32:41.019Z,482
2022-09-14T07:34:41.191Z,665
2022-09-14T07:35:41.020Z,740
2022-09-14T07:36:41.003Z,553
2022-09-14T07:37:40.991Z,602
2022-09-14T07:39:41.198Z,649
2022-09-14T07:40:41.004Z,737
2022-09-14T07:41:41.040Z,560
2022-09-14T07:42:41.007Z,737
2022-09-14T07:44:41.171Z,765
2022-09-14T07:45:41.033Z,531
2022-09-14T07:46:41.010Z,715
2022-09-14T07:47:41.016Z,730
2022-09-14T07:49:41.189Z,714
2022-09-14T07:50:40.966Z,706
2022-09-14T07:51:40.966Z,726
2022-09-14T07:52:41.008Z,706
2022-09-14T07:54:41.189Z,555
2022-09-14T07:55:41.008Z,748
2022-09-14T07:56:40.976Z,712
2022-09-14T07:57:55.461Z,752
2022-09-14T07:59:41.207Z,714
2022-09-14T08:00:40.967Z,719
2022-09-14T08:01:41.083Z,492
2022-09-14T08:02:41.040Z,704
2022-09-14T08:04:41.208Z,690
2022-09-14T08:05:41.009Z,486
2022-09-14T08:06:40.977Z,631
2022-09-14T08:07:40.986Z,637
2022-09-14T08:09:41.196Z,482
2022-09-14T08:10:41.014Z,600
2022-09-14T08:11:41.033Z,460
2022-09-14T08:12:41.019Z,451
2022-09-14T08:14:41.196Z,451
2022-09-14T08:15:41.020Z,599
2022-09-14T08:16:41.338Z,615
2022-09-14T08:17:41.004Z,470
2022-09-14T08:19:41.214Z,620
2022-09-14T08:20:41.014Z,615
2022-09-14T08:21:45.771Z,451
2022-09-14T08:22:41.074Z,637
2022-09-14T08:24:41.214Z,626
2022-09-14T08:25:41.030Z,523
2022-09-14T08:26:41.037Z,657
2022-09-14T08:27:41.035Z,488
2022-09-14T08:29:41.198Z,485
2022-09-14T08:30:40.990Z,600
2022-09-14T08:31:41.078Z,611
2022-09-14T08:32:40.995Z,463
2022-09-14T08:34:41.195Z,615
2022-09-14T08:35:57.284Z,637
2022-09-14T08:36:40.993Z,624
2022-09-14T08:37:40.996Z,666
2022-09-14T08:39:41.222Z,615
2022-09-14T08:40:41.036Z,597
2022-09-14T08:41:41.033Z,434
2022-09-14T08:42:41.015Z,623
2022-09-14T08:44:41.229Z,614
2022-09-14T08:45:41.079Z,542
2022-09-14T08:46:41.003Z,400
2022-09-14T08:47:41.007Z,536
2022-09-14T08:49:41.228Z,498
2022-09-14T08:50:41.004Z,730
2022-09-14T08:51:41.030Z,565
2022-09-14T08:52:41.014Z,778
2022-09-14T08:54:41.233Z,506
2022-09-14T08:55:41.032Z,646
2022-09-14T08:56:41.064Z,454
2022-09-14T08:57:41.061Z,641
2022-09-14T08:59:41.243Z,637
2022-09-14T09:00:41.069Z,735
2022-09-14T09:01:41.054Z,575
2022-09-14T09:02:41.040Z,776
2022-09-14T09:04:41.216Z,765
2022-09-14T09:05:41.045Z,534
2022-09-14T09:06:41.061Z,737
2022-09-14T09:07:41.035Z,561
2022-09-14T09:09:41.217Z,463
2022-09-14T09:10:41.019Z,503
2022-09-14T09:11:41.030Z,589
2022-09-14T09:12:41.045Z,668
2022-09-14T09:14:41.232Z,706
2022-09-14T09:15:41.019Z,465
2022-09-14T09:16:41.099Z,527
2022-09-14T09:17:41.053Z,742
2022-09-14T09:19:41.255Z,714
2022-09-14T09:20:41.029Z,683
2022-09-14T09:21:41.020Z,505
2022-09-14T09:22:41.034Z,530
2022-09-14T09:24:41.269Z,497
2022-09-14T09:25:41.043Z,652
2022-09-14T09:26:41.051Z,486
2022-09-14T09:27:41.050Z,674
2022-09-14T09:29:41.237Z,688
2022-09-14T09:30:41.060Z,657
2022-09-14T09:31:41.100Z,776
2022-09-14T09:32:41.066Z,706
2022-09-14T09:34:41.234Z,851
2022-09-14T09:35:41.042Z,653
2022-09-14T09:36:41.052Z,905
2022-09-14T09:37:41.028Z,686
2022-09-14T09:39:41.248Z,987
2022-09-14T09:40:41.029Z,672
2022-09-14T09:41:41.064Z,920
2022-09-14T09:42:41.063Z,694
2022-09-14T09:44:41.264Z,897
2022-09-14T09:45:41.065Z,942
2022-09-14T09:46:41.108Z,915
2022-09-14T09:47:41.072Z,970
2022-09-14T09:49:41.255Z,935
2022-09-14T09:50:41.076Z,1053
2022-09-14T09:51:41.074Z,785
2022-09-14T09:52:41.071Z,1019
2022-09-14T09:54:41.289Z,1041
2022-09-14T09:55:41.055Z,660
2022-09-14T09:56:41.041Z,637
2022-09-14T09:57:41.045Z,666
2022-09-14T09:59:41.247Z,759
2022-09-14T10:00:41.066Z,733
2022-09-14T10:01:41.105Z,778
2022-09-14T10:02:41.141Z,1056
2022-09-14T10:04:41.281Z,1041
2022-09-14T10:05:41.106Z,970
2022-09-14T10:06:41.084Z,940
2022-09-14T10:07:41.075Z,935
2022-09-14T10:09:41.275Z,1032
2022-09-14T10:10:41.095Z,1050
2022-09-14T10:11:41.092Z,708
2022-09-14T10:12:41.044Z,765
2022-09-14T10:14:41.296Z,744
2022-09-14T10:15:41.140Z,920
2022-09-14T10:16:41.087Z,674
2022-09-14T10:17:41.078Z,920
2022-09-14T10:19:41.281Z,672
2022-09-14T10:20:41.085Z,889
2022-09-14T10:21:41.077Z,637
2022-09-14T10:22:41.083Z,838
2022-09-14T10:24:41.286Z,580
2022-09-14T10:25:41.088Z,772
2022-09-14T10:26:41.095Z,570
2022-09-14T10:27:41.095Z,774
2022-09-14T10:29:41.289Z,444
2022-09-14T10:30:41.072Z,825
2022-09-14T10:31:41.152Z,992
2022-09-14T10:32:41.069Z,995
2022-09-14T10:34:41.273Z,972
2022-09-14T10:35:41.118Z,857
2022-09-14T10:36:41.075Z,810
2022-09-14T10:37:41.084Z,802
2022-09-14T10:39:41.271Z,574
2022-09-14T10:40:41.075Z,634
2022-09-14T10:41:41.060Z,885
2022-09-14T10:42:41.080Z,656
2022-09-14T10:44:41.272Z,623
2022-09-14T10:45:41.099Z,813
2022-09-14T10:46:41.172Z,715
2022-09-14T10:47:41.097Z,607
2022-09-14T10:49:41.296Z,617
2022-09-14T10:50:41.163Z,652
2022-09-14T10:51:41.100Z,657
2022-09-14T10:52:41.107Z,501
2022-09-14T10:54:41.299Z,704
2022-09-14T10:55:41.113Z,702
2022-09-14T10:56:41.115Z,730
2022-09-14T10:57:41.112Z,770
2022-09-14T10:59:41.303Z,870
2022-09-14T11:00:41.090Z,815
2022-09-14T11:01:41.260Z,882
2022-09-14T11:02:41.225Z,614
2022-09-14T11:04:41.306Z,623
2022-09-14T11:05:41.107Z,997
2022-09-14T11:06:41.110Z,987
2022-09-14T11:07:41.133Z,970
2022-09-14T11:09:41.292Z,702
2022-09-14T11:10:41.118Z,961
2022-09-14T11:11:41.122Z,983
2022-09-14T11:12:41.118Z,997
2022-09-14T11:14:41.319Z,1071
2022-09-14T11:15:41.226Z,1081
2022-09-14T11:16:41.138Z,844
2022-09-14T11:17:41.111Z,1159
2022-09-14T11:19:41.310Z,1198
2022-09-14T11:20:42.671Z,1174
2022-09-14T11:21:41.129Z,1259
2022-09-14T11:22:41.154Z,1316
2022-09-14T11:24:41.316Z,915
2022-09-14T11:25:41.091Z,1242
2022-09-14T11:26:42.416Z,1181
2022-09-14T11:27:41.114Z,1150
2022-09-14T11:29:41.318Z,863
2022-09-14T11:30:41.166Z,1156
2022-09-14T11:31:41.128Z,977
2022-09-14T11:32:41.139Z,1376
2022-09-14T11:34:41.313Z,905
2022-09-14T11:35:41.142Z,1147
2022-09-14T11:36:41.145Z,851
2022-09-14T11:37:41.098Z,1178
2022-09-14T11:39:41.304Z,855
2022-09-14T11:40:41.124Z,1086
2022-09-14T11:41:41.127Z,702
2022-09-14T11:42:41.129Z,702
2022-09-14T11:44:41.312Z,987
2022-09-14T11:45:41.136Z,907
2022-09-14T11:46:41.202Z,1014
2022-09-14T11:47:41.174Z,1044
2022-09-14T11:49:41.337Z,1174
2022-09-14T11:50:41.145Z,749
2022-09-14T11:51:41.138Z,1014
2022-09-14T11:52:41.109Z,1014
2022-09-14T11:54:44.761Z,1118
2022-09-14T11:55:41.135Z,1071
2022-09-14T11:56:41.126Z,817
2022-09-14T11:57:41.175Z,815
2022-09-14T11:59:41.314Z,765
2022-09-14T12:00:41.120Z,863
2022-09-14T12:01:41.141Z,1248
2022-09-14T12:02:41.167Z,1321
2022-09-14T12:04:41.345Z,1341
2022-09-14T12:05:41.152Z,1413
2022-09-14T12:06:41.161Z,897
2022-09-14T12:07:41.145Z,1364
2022-09-14T12:09:41.335Z,1364
2022-09-14T12:10:45.286Z,897
2022-09-14T12:11:41.140Z,902
2022-09-14T12:12:41.120Z,832
2022-09-14T12:14:41.322Z,1174
2022-09-14T12:15:41.173Z,1081
2022-09-14T12:16:41.155Z,1338
2022-09-14T12:17:41.483Z,1163
2022-09-14T12:19:41.345Z,1425
2022-09-14T12:20:41.145Z,913
2022-09-14T12:21:41.153Z,1310
2022-09-14T12:22:41.137Z,900
2022-09-14T12:24:41.353Z,1235
2022-09-14T12:25:41.166Z,1144
2022-09-14T12:26:41.187Z,1131
2022-09-14T12:27:41.169Z,1191
2022-09-14T12:29:41.337Z,830
2022-09-14T12:30:41.294Z,1188
2022-09-14T12:31:41.242Z,887
2022-09-14T12:32:41.163Z,1188
2022-09-14T12:34:41.351Z,783
2022-09-14T12:35:41.149Z,1255
2022-09-14T12:36:41.161Z,930
2022-09-14T12:37:41.171Z,1295
2022-09-14T12:39:41.350Z,1285
2022-09-14T12:40:41.177Z,1060
2022-09-14T12:41:41.140Z,995
2022-09-14T12:42:41.134Z,666
2022-09-14T12:44:41.343Z,1029
2022-09-14T12:45:41.177Z,1017
2022-09-14T12:46:41.253Z,970
2022-09-14T12:47:41.184Z,712
2022-09-14T12:49:41.360Z,959
2022-09-14T12:50:41.166Z,1017
2022-09-14T12:51:41.173Z,1118
2022-09-14T12:52:41.180Z,800
2022-09-14T12:54:41.353Z,970
2022-09-14T12:55:41.156Z,746
2022-09-14T12:56:41.154Z,650
2022-09-14T12:57:41.162Z,887
2022-09-14T12:59:41.401Z,853
2022-09-14T13:00:41.179Z,675
2022-09-14T13:01:41.246Z,967
2022-09-14T13:02:41.325Z,834
2022-09-14T13:04:41.369Z,406
2022-09-14T13:05:41.173Z,650
2022-09-14T13:06:41.168Z,804
2022-09-14T13:07:41.178Z,569
2022-09-14T13:09:41.377Z,761
2022-09-14T13:10:41.186Z,851
2022-09-14T13:11:41.202Z,637
2022-09-14T13:12:41.191Z,798
2022-09-14T13:14:41.381Z,537
2022-09-14T13:15:41.228Z,726
2022-09-14T13:16:41.206Z,519
2022-09-14T13:17:41.219Z,649
2022-09-14T13:19:41.389Z,641
2022-09-14T13:20:41.205Z,591
2022-09-14T13:21:41.194Z,452
2022-09-14T13:22:41.192Z,588
2022-09-14T13:24:41.395Z,551
2022-09-14T13:25:41.194Z,581
2022-09-14T13:26:41.170Z,473
2022-09-14T13:27:41.216Z,556
2022-09-14T13:29:41.423Z,473
2022-09-14T13:30:41.255Z,526
2022-09-14T13:31:41.207Z,473
2022-09-14T13:32:41.197Z,496
2022-09-14T13:34:41.381Z,473
2022-09-14T13:35:41.224Z,515
2022-09-14T13:36:41.236Z,534
2022-09-14T13:37:43.240Z,515
2022-09-14T13:39:41.380Z,515
2022-09-14T13:40:41.207Z,545
2022-09-14T13:41:41.215Z,545
2022-09-14T13:42:41.205Z,545
2022-09-14T13:44:41.382Z,545
2022-09-14T13:45:41.227Z,518
2022-09-14T13:46:41.274Z,518
2022-09-14T13:47:41.208Z,518
2022-09-14T13:49:41.402Z,518
2022-09-14T13:50:41.207Z,518
2022-09-14T13:51:41.190Z,518
2022-09-14T13:53:00.990Z,518
2022-09-14T13:54:41.414Z,518
2022-09-14T13:55:41.217Z,518
2022-09-14T13:56:41.215Z,518
2022-09-14T13:57:41.212Z,518
2022-09-14T13:59:41.402Z,518
2022-09-14T14:00:41.235Z,560
2022-09-14T14:01:41.281Z,560
2022-09-14T14:02:44.071Z,560
2022-09-14T14:04:41.419Z,560
2022-09-14T14:05:41.227Z,588
2022-09-14T14:06:41.325Z,588
2022-09-14T14:07:41.225Z,588
2022-09-14T14:09:41.385Z,588
2022-09-14T14:10:41.201Z,594
2022-09-14T14:11:41.200Z,594
2022-09-14T14:12:41.229Z,594
2022-09-14T14:14:41.399Z,594
2022-09-14T14:15:41.249Z,717
2022-09-14T14:16:41.309Z,717
2022-09-14T14:17:41.234Z,717
2022-09-14T14:19:41.425Z,717
2022-09-14T14:20:41.191Z,699
2022-09-14T14:21:41.205Z,699
2022-09-14T14:22:41.221Z,699
2022-09-14T14:25:02.344Z,699
2022-09-14T14:25:45.598Z,637
2022-09-14T14:26:41.215Z,637
2022-09-14T14:27:41.214Z,637
2022-09-14T14:29:41.421Z,637
2022-09-14T14:30:41.236Z,732
2022-09-14T14:31:41.310Z,732
2022-09-14T14:32:41.233Z,732
2022-09-14T14:34:41.408Z,783
2022-09-14T14:35:41.207Z,742
2022-09-14T14:36:41.236Z,742
2022-09-14T14:37:41.210Z,882
2022-09-14T14:39:41.442Z,967
2022-09-14T14:40:41.357Z,935
2022-09-14T14:41:41.257Z,1004
2022-09-14T14:42:41.246Z,1060
2022-09-14T14:44:41.432Z,945
2022-09-14T14:45:41.294Z,915
2022-09-14T14:46:41.242Z,1231
2022-09-14T14:47:41.247Z,1238
2022-09-14T14:49:41.426Z,972
2022-09-14T14:50:41.223Z,1316
2022-09-14T14:51:41.239Z,1281
2022-09-14T14:52:41.242Z,1372
2022-09-14T14:54:41.406Z,1503
2022-09-14T14:55:41.248Z,1749
2022-09-14T14:56:41.238Z,1735
2022-09-14T14:57:41.212Z,1356
2022-09-14T14:59:41.433Z,1865
2022-09-14T15:00:41.295Z,1805
2022-09-14T15:01:41.249Z,2092
2022-09-14T15:02:41.238Z,2176
2022-09-14T15:04:41.453Z,1669
2022-09-14T15:05:41.236Z,2272
2022-09-14T15:06:41.261Z,2388
2022-09-14T15:07:41.265Z,2414
2022-09-14T15:09:41.444Z,1933
2022-09-14T15:10:41.246Z,2041
2022-09-14T15:11:41.254Z,2220
2022-09-14T15:12:41.261Z,2201
2022-09-14T15:14:41.433Z,2338
2022-09-14T15:15:41.253Z,2152
2022-09-14T15:16:41.287Z,2438
2022-09-14T15:17:41.298Z,2367
2022-09-14T15:19:41.440Z,2394
2022-09-14T15:20:41.272Z,2921
2022-09-14T15:21:41.273Z,3315
2022-09-14T15:22:41.260Z,2659
2022-09-14T15:24:41.452Z,2970
2022-09-14T15:25:41.226Z,3050
2022-09-14T15:26:41.231Z,2970
2022-09-14T15:27:41.231Z,3140
2022-09-14T15:29:41.438Z,3015
2022-09-14T15:30:41.242Z,3158
2022-09-14T15:31:41.389Z,3158
2022-09-14T15:32:41.258Z,3268
2022-09-14T15:34:41.445Z,4543
2022-09-14T15:35:41.265Z,4465
2022-09-14T15:36:41.273Z,3421
2022-09-14T15:37:41.238Z,4689
2022-09-14T15:39:41.447Z,4902
2022-09-14T15:40:41.308Z,5056
2022-09-14T15:41:41.274Z,5087
2022-09-14T15:42:41.278Z,5001
2022-09-14T15:44:41.456Z,5087
2022-09-14T15:45:41.333Z,4840
2022-09-14T15:46:41.266Z,3791
2022-09-14T15:47:41.298Z,3710
2022-09-14T15:49:41.465Z,5147
2022-09-14T15:50:41.271Z,5630
2022-09-14T15:51:41.288Z,5466
2022-09-14T15:52:41.251Z,5531
2022-09-14T15:54:41.442Z,5658
2022-09-14T15:55:41.253Z,5582
2022-09-14T15:56:41.264Z,5658
2022-09-14T15:57:41.271Z,5658
2022-09-14T15:59:41.444Z,5712
2022-09-14T16:00:41.318Z,5348
2022-09-14T16:01:41.325Z,5515
2022-09-14T16:02:41.283Z,5409
2022-09-14T16:04:41.449Z,5131
2022-09-14T16:05:41.279Z,5348